createdAt,value
2023-04-18T00:01:49.090Z,85.51
2023-04-18T00:04:18.257Z,85.48
2023-04-18T00:06:47.335Z,85.33
2023-04-18T00:09:14.151Z,85.35
2023-04-18T00:11:41.209Z,85.49
2023-04-18T00:14:08.789Z,85.51
2023-04-18T00:17:06.370Z,85.33
2023-04-18T00:19:48.962Z,85.44
2023-04-18T00:22:17.468Z,85.60
2023-04-18T00:24:44.168Z,85.86
2023-04-18T00:27:10.904Z,85.87
2023-04-18T00:29:37.921Z,85.85
2023-04-18T00:32:04.790Z,86.02
2023-04-18T00:34:31.753Z,85.76
2023-04-18T00:36:58.539Z,85.75
2023-04-18T00:39:25.317Z,85.69
2023-04-18T00:41:53.546Z,85.62
2023-04-18T00:44:20.846Z,85.68
2023-04-18T00:46:48.378Z,85.43
2023-04-18T00:49:15.733Z,85.63
2023-04-18T00:51:43.169Z,85.52
2023-04-18T00:54:14.749Z,85.54
2023-04-18T00:56:43.091Z,85.49
2023-04-18T00:59:13.317Z,85.61
2023-04-18T01:01:40.417Z,85.75
2023-04-18T01:04:09.855Z,85.62
2023-04-18T01:06:37.086Z,85.45
2023-04-18T01:09:05.575Z,85.25
2023-04-18T01:11:32.683Z,85.41
2023-04-18T01:14:01.026Z,85.24
2023-04-18T01:16:29.600Z,85.39
2023-04-18T01:18:57.223Z,85.29
2023-04-18T01:22:09.882Z,85.17
2023-04-18T01:24:36.848Z,85.37
2023-04-18T01:27:03.702Z,85.23
2023-04-18T01:29:30.876Z,85.24
2023-04-18T01:31:57.772Z,85.49
2023-04-18T01:34:24.542Z,85.37
2023-04-18T01:36:51.505Z,85.02
2023-04-18T01:39:18.506Z,85.01
2023-04-18T01:41:45.659Z,85.05
2023-04-18T01:44:12.606Z,84.86
2023-04-18T01:46:40.928Z,85.06
2023-04-18T01:49:08.052Z,84.82
2023-04-18T01:51:34.874Z,84.58
2023-04-18T01:54:01.556Z,84.76
2023-04-18T01:56:28.379Z,84.69
2023-04-18T01:58:58.064Z,84.71
2023-04-18T02:01:24.996Z,84.83
2023-04-18T02:03:52.027Z,84.84
2023-04-18T02:06:19.372Z,84.69
2023-04-18T02:08:47.926Z,84.78
2023-04-18T02:11:14.725Z,84.57
2023-04-18T02:13:41.934Z,84.87
2023-04-18T02:16:16.398Z,85.11
2023-04-18T02:18:43.751Z,84.92
2023-04-18T02:21:11.287Z,84.70
2023-04-18T02:23:38.056Z,84.87
2023-04-18T02:26:04.918Z,85.10
2023-04-18T02:28:31.706Z,85.23
2023-04-18T02:30:59.923Z,85.22
2023-04-18T02:33:27.031Z,85.33
2023-04-18T02:35:53.746Z,85.40
2023-04-18T02:38:20.468Z,85.60
2023-04-18T02:40:52.100Z,85.48
2023-04-18T02:43:20.756Z,85.27
2023-04-18T02:45:47.498Z,85.46
2023-04-18T02:48:14.889Z,85.38
2023-04-18T02:50:41.824Z,85.40
2023-04-18T02:53:08.839Z,85.51
2023-04-18T02:55:48.637Z,85.34
2023-04-18T02:58:16.145Z,85.43
2023-04-18T03:00:58.735Z,85.56
2023-04-18T03:03:41.346Z,85.39
2023-04-18T03:06:23.393Z,85.59
2023-04-18T03:08:52.896Z,85.61
2023-04-18T03:11:21.459Z,85.47
2023-04-18T03:13:48.459Z,85.60
2023-04-18T03:16:16.724Z,85.52
2023-04-18T03:18:43.902Z,85.58
2023-04-18T03:21:11.985Z,85.32
2023-04-18T03:23:38.858Z,85.32
2023-04-18T03:26:07.581Z,85.36
2023-04-18T03:28:35.512Z,85.36
2023-04-18T03:31:02.793Z,85.30
2023-04-18T03:33:31.683Z,85.25
2023-04-18T03:36:06.248Z,85.38
2023-04-18T03:38:33.438Z,85.41
2023-04-18T03:41:00.484Z,85.37
2023-04-18T03:43:32.259Z,85.59
2023-04-18T03:45:59.201Z,85.54
2023-04-18T03:48:26.869Z,85.60
2023-04-18T03:50:54.614Z,85.79
2023-04-18T03:53:21.518Z,85.77
2023-04-18T03:55:48.418Z,85.82
2023-04-18T03:58:18.085Z,85.72
2023-04-18T04:00:46.439Z,85.76
2023-04-18T04:03:13.406Z,85.53
2023-04-18T04:05:40.532Z,85.69
2023-04-18T04:08:07.628Z,85.61
2023-04-18T04:10:34.694Z,85.51
2023-04-18T04:13:01.567Z,85.45
2023-04-18T04:15:28.883Z,85.61
2023-04-18T04:18:01.232Z,85.56
2023-04-18T04:20:29.794Z,85.47
2023-04-18T04:23:02.316Z,85.22
2023-04-18T04:25:33.398Z,85.46
2023-04-18T04:28:02.794Z,85.16
2023-04-18T04:30:31.802Z,85.26
2023-04-18T04:32:59.832Z,85.05
2023-04-18T04:35:29.679Z,85.06
2023-04-18T04:37:56.497Z,85.00
2023-04-18T04:40:29.417Z,84.93
2023-04-18T04:43:04.797Z,84.66
2023-04-18T04:45:36.426Z,84.73
2023-04-18T04:48:03.489Z,84.43
2023-04-18T04:50:30.268Z,84.42
2023-04-18T04:52:57.071Z,84.21
2023-04-18T04:55:24.790Z,83.75
2023-04-18T04:57:51.618Z,83.50
2023-04-18T05:00:34.092Z,83.02
2023-04-18T05:03:02.263Z,82.69
2023-04-18T05:05:30.641Z,82.49
2023-04-18T05:07:57.442Z,81.99
2023-04-18T05:10:24.250Z,81.87
2023-04-18T05:12:51.182Z,81.40
2023-04-18T05:15:18.232Z,81.12
2023-04-18T05:17:45.138Z,80.86
2023-04-18T05:20:12.114Z,80.75
2023-04-18T05:22:38.858Z,80.15
2023-04-18T05:25:06.388Z,79.63
2023-04-18T05:27:33.098Z,79.28
2023-04-18T05:29:59.824Z,79.23
2023-04-18T05:32:26.622Z,79.21
2023-04-18T05:34:53.338Z,79.18
2023-04-18T05:37:20.277Z,78.79
2023-04-18T05:39:47.095Z,77.56
2023-04-18T05:42:13.834Z,76.40
2023-04-18T05:44:40.552Z,75.95
2023-04-18T05:47:07.453Z,75.40
2023-04-18T05:49:34.186Z,75.03
2023-04-18T05:52:00.959Z,75.23
2023-04-18T05:54:27.770Z,75.06
2023-04-18T05:56:54.912Z,73.95
2023-04-18T05:59:21.726Z,74.02
2023-04-18T06:01:49.532Z,73.48
2023-04-18T06:04:16.993Z,73.21
2023-04-18T06:06:44.313Z,73.65
2023-04-18T06:09:11.206Z,73.68
2023-04-18T06:11:38.226Z,73.93
2023-04-18T06:14:05.080Z,73.32
2023-04-18T06:16:31.976Z,72.50
2023-04-18T06:19:01.115Z,71.84
2023-04-18T06:21:28.166Z,71.33
2023-04-18T06:23:55.028Z,70.55
2023-04-18T06:26:21.822Z,69.83
2023-04-18T06:28:48.591Z,69.92
2023-04-18T06:31:48.466Z,70.83
2023-04-18T06:34:15.614Z,70.62
2023-04-18T06:36:42.835Z,69.16
2023-04-18T06:39:09.874Z,68.01
2023-04-18T06:41:36.991Z,66.44
2023-04-18T06:44:04.642Z,66.02
2023-04-18T06:46:32.746Z,65.13
2023-04-18T06:48:59.950Z,63.91
2023-04-18T06:51:27.458Z,63.06
2023-04-18T06:53:54.406Z,62.85
2023-04-18T06:56:21.662Z,61.08
2023-04-18T06:58:48.824Z,60.10
2023-04-18T07:01:16.200Z,57.27
2023-04-18T07:03:43.215Z,55.77
2023-04-18T07:06:11.048Z,55.67
2023-04-18T07:08:38.170Z,54.38
2023-04-18T07:11:06.104Z,53.66
2023-04-18T07:13:33.023Z,54.80
2023-04-18T07:15:59.841Z,55.15
2023-04-18T07:18:37.568Z,54.72
2023-04-18T07:21:07.876Z,54.77
2023-04-18T07:23:35.619Z,54.50
2023-04-18T07:26:02.883Z,54.90
2023-04-18T07:28:32.120Z,55.28
2023-04-18T07:30:59.416Z,54.27
2023-04-18T07:33:26.272Z,53.15
2023-04-18T07:35:53.272Z,52.85
2023-04-18T07:38:20.586Z,52.19
2023-04-18T07:40:47.428Z,51.62
2023-04-18T07:43:14.229Z,52.12
2023-04-18T07:45:43.317Z,51.54
2023-04-18T07:48:11.333Z,51.50
2023-04-18T07:50:38.417Z,50.46
2023-04-18T07:53:05.368Z,49.34
2023-04-18T07:55:32.139Z,50.11
2023-04-18T07:57:58.966Z,50.17
2023-04-18T08:00:26.402Z,48.33
2023-04-18T08:02:53.249Z,48.28
2023-04-18T08:05:20.428Z,48.05
2023-04-18T08:07:47.397Z,47.82
2023-04-18T08:10:14.177Z,48.09
2023-04-18T08:12:41.217Z,47.37
2023-04-18T08:15:08.922Z,46.81
2023-04-18T08:17:36.010Z,46.56
2023-04-18T08:20:07.374Z,45.67
2023-04-18T08:22:34.205Z,45.29
2023-04-18T08:25:05.352Z,44.99
2023-04-18T08:27:32.808Z,44.69
2023-04-18T08:30:00.762Z,44.26
2023-04-18T08:32:27.883Z,44.79
2023-04-18T08:34:56.119Z,44.71
2023-04-18T08:37:22.921Z,44.18
2023-04-18T08:39:49.730Z,43.58
2023-04-18T08:42:19.410Z,43.08
2023-04-18T08:44:47.290Z,42.60
2023-04-18T08:47:14.726Z,41.71
2023-04-18T08:49:43.972Z,42.86
2023-04-18T08:52:13.535Z,41.77
2023-04-18T08:54:42.847Z,40.71
2023-04-18T08:57:12.654Z,41.04
2023-04-18T08:59:40.228Z,42.09
2023-04-18T09:02:09.039Z,42.50
2023-04-18T09:04:38.428Z,40.83
2023-04-18T09:07:07.712Z,40.87
2023-04-18T09:09:42.713Z,39.45
2023-04-18T09:12:11.371Z,38.97
2023-04-18T09:14:42.866Z,38.51
2023-04-18T09:17:13.202Z,37.94
2023-04-18T09:19:49.120Z,37.98
2023-04-18T09:22:17.058Z,37.79
2023-04-18T09:24:53.858Z,38.71
2023-04-18T09:27:24.161Z,40.48
2023-04-18T09:29:54.746Z,39.04
2023-04-18T09:32:27.220Z,38.47
2023-04-18T09:34:58.274Z,36.92
2023-04-18T09:37:26.478Z,37.58
2023-04-18T09:39:53.563Z,37.45
2023-04-18T09:42:21.241Z,37.62
2023-04-18T09:45:05.817Z,38.12
2023-04-18T09:47:35.427Z,38.32
2023-04-18T09:50:07.552Z,37.05
2023-04-18T09:52:37.273Z,37.27
2023-04-18T09:55:06.665Z,38.50
2023-04-18T09:57:37.117Z,37.52
2023-04-18T10:00:17.523Z,37.24
2023-04-18T10:02:48.816Z,37.44
2023-04-18T10:05:19.515Z,38.12
2023-04-18T10:07:49.684Z,38.06
2023-04-18T10:10:17.561Z,37.77
2023-04-18T10:12:46.066Z,37.17
2023-04-18T10:15:12.946Z,37.99
2023-04-18T10:17:56.149Z,36.18
2023-04-18T10:20:30.165Z,37.66
2023-04-18T10:22:58.607Z,36.79
2023-04-18T10:25:41.316Z,36.36
2023-04-18T10:28:09.474Z,37.51
2023-04-18T10:30:40.754Z,36.84
2023-04-18T10:36:09.192Z,36.60
2023-04-18T10:38:45.637Z,36.61
2023-04-18T10:41:18.549Z,38.06
2023-04-18T10:44:08.874Z,38.66
2023-04-18T10:46:39.219Z,36.87
2023-04-18T10:49:24.007Z,36.21
2023-04-18T10:51:55.295Z,36.87
2023-04-18T10:54:32.926Z,36.41
2023-04-18T10:57:03.632Z,35.88
2023-04-18T10:59:32.459Z,37.63
2023-04-18T11:02:22.099Z,37.45
2023-04-18T11:04:51.703Z,37.50
2023-04-18T11:07:18.555Z,36.23
2023-04-18T11:09:54.359Z,34.97
2023-04-18T11:12:21.536Z,35.62
2023-04-18T11:14:52.012Z,35.71
2023-04-18T11:17:22.051Z,33.54
2023-04-18T11:19:49.925Z,33.79
2023-04-18T11:22:18.027Z,32.62
2023-04-18T11:24:45.379Z,32.99
2023-04-18T11:27:12.788Z,33.92
2023-04-18T11:29:39.541Z,34.06
2023-04-18T11:32:11.050Z,34.78
2023-04-18T11:34:37.810Z,34.55
2023-04-18T11:37:08.487Z,33.73
2023-04-18T11:39:44.322Z,33.50
2023-04-18T11:42:11.485Z,32.58
2023-04-18T11:44:43.188Z,30.77
2023-04-18T11:47:27.031Z,30.10
2023-04-18T11:49:57.064Z,30.66
2023-04-18T11:52:25.031Z,29.85
2023-04-18T11:54:51.934Z,30.42
2023-04-18T11:57:28.016Z,30.22
2023-04-18T11:59:57.777Z,28.70
2023-04-18T12:02:27.182Z,26.96
2023-04-18T12:04:56.013Z,27.40
2023-04-18T12:07:40.104Z,27.29
2023-04-18T12:10:09.707Z,26.87
2023-04-18T12:12:36.627Z,25.84
2023-04-18T12:15:06.777Z,24.81
2023-04-18T12:17:34.076Z,24.63
2023-04-18T12:20:02.181Z,23.26
2023-04-18T12:22:44.472Z,23.19
2023-04-18T12:25:27.823Z,22.57
2023-04-18T12:27:58.291Z,22.61
2023-04-18T12:30:32.269Z,22.84
2023-04-18T12:33:01.766Z,23.59
2023-04-18T12:35:29.936Z,24.38
2023-04-18T12:37:59.267Z,24.88
2023-04-18T12:40:27.647Z,25.75
2023-04-18T12:42:55.477Z,26.33
2023-04-18T12:45:24.082Z,26.96
2023-04-18T12:47:52.437Z,26.44
2023-04-18T12:50:22.456Z,26.64
2023-04-18T12:52:51.460Z,26.49
2023-04-18T12:55:18.505Z,26.74
2023-04-18T12:57:45.379Z,27.18
2023-04-18T13:00:13.653Z,28.49
2023-04-18T13:02:43.168Z,28.64
2023-04-18T13:05:13.453Z,29.52
2023-04-18T13:07:42.624Z,30.33
2023-04-18T13:10:12.041Z,29.47
2023-04-18T13:12:41.531Z,27.94
2023-04-18T13:15:09.571Z,28.65
2023-04-18T13:17:38.124Z,30.18
2023-04-18T13:20:06.824Z,30.14
2023-04-18T13:22:33.980Z,28.54
2023-04-18T13:25:01.009Z,28.84
2023-04-18T13:27:27.781Z,29.17
2023-04-18T13:29:56.268Z,28.81
2023-04-18T13:32:23.708Z,29.50
2023-04-18T13:34:50.651Z,28.90
2023-04-18T13:37:17.471Z,28.33
2023-04-18T13:39:44.487Z,28.84
2023-04-18T13:42:11.316Z,28.92
2023-04-18T13:44:38.428Z,28.81
2023-04-18T13:47:06.988Z,29.06
2023-04-18T13:49:35.012Z,27.39
2023-04-18T13:52:02.356Z,27.96
2023-04-18T13:54:31.108Z,28.13
2023-04-18T13:57:01.891Z,28.76
2023-04-18T13:59:30.682Z,28.60
2023-04-18T14:01:57.587Z,29.11
2023-04-18T14:04:24.753Z,29.32
2023-04-18T14:06:51.708Z,29.44
2023-04-18T14:09:18.460Z,28.93
2023-04-18T14:11:45.766Z,28.67
2023-04-18T14:14:12.741Z,29.61
2023-04-18T14:16:39.630Z,29.72
2023-04-18T14:19:06.686Z,29.68
2023-04-18T14:21:33.423Z,30.14
2023-04-18T14:24:00.421Z,28.67
2023-04-18T14:26:27.623Z,27.64
2023-04-18T14:28:54.518Z,28.25
2023-04-18T14:31:21.779Z,25.60
2023-04-18T14:33:48.666Z,24.85
2023-04-18T14:36:16.940Z,26.96
2023-04-18T14:38:48.515Z,28.26
2023-04-18T14:41:15.459Z,27.41
2023-04-18T14:43:42.272Z,28.75
2023-04-18T14:46:13.493Z,29.48
2023-04-18T14:48:40.364Z,30.40
2023-04-18T14:51:07.880Z,30.57
2023-04-18T14:53:34.851Z,31.44
2023-04-18T14:56:01.621Z,31.23
2023-04-18T14:58:28.367Z,30.49
2023-04-18T15:00:55.290Z,31.98
2023-04-18T15:03:22.366Z,34.04
2023-04-18T15:05:49.296Z,34.70
2023-04-18T15:08:16.394Z,35.76
2023-04-18T15:10:43.156Z,37.10
2023-04-18T15:13:11.023Z,37.32
2023-04-18T15:15:39.787Z,38.23
2023-04-18T15:18:08.548Z,38.92
2023-04-18T15:20:37.251Z,39.38
2023-04-18T15:23:04.186Z,39.70
2023-04-18T15:25:31.308Z,39.60
2023-04-18T15:27:58.687Z,39.56
2023-04-18T15:30:25.766Z,40.91
2023-04-18T15:32:54.790Z,41.47
2023-04-18T15:35:22.314Z,41.69
2023-04-18T15:37:49.322Z,42.00
2023-04-18T15:40:16.608Z,42.52
2023-04-18T15:42:43.825Z,42.70
2023-04-18T15:45:11.662Z,43.64
2023-04-18T15:47:38.944Z,43.25
2023-04-18T15:50:07.047Z,42.20
2023-04-18T15:52:34.220Z,42.39
2023-04-18T15:55:01.163Z,42.79
2023-04-18T15:57:29.738Z,43.29
2023-04-18T15:59:57.081Z,43.65
2023-04-18T16:02:24.372Z,43.79
2023-04-18T16:04:51.387Z,43.77
2023-04-18T16:07:18.286Z,44.24
2023-04-18T16:09:45.061Z,45.07
2023-04-18T16:12:11.790Z,44.58
2023-04-18T16:14:38.532Z,44.36
2023-04-18T16:17:05.446Z,44.63
2023-04-18T16:19:33.924Z,45.13
2023-04-18T16:22:02.464Z,45.79
2023-04-18T16:24:30.332Z,45.72
2023-04-18T16:26:57.467Z,45.88
2023-04-18T16:29:24.308Z,46.67
2023-04-18T16:31:51.768Z,47.25
2023-04-18T16:34:18.752Z,47.66
2023-04-18T16:36:45.522Z,47.38
2023-04-18T16:39:12.385Z,47.59
2023-04-18T16:41:39.220Z,47.87
2023-04-18T16:44:06.026Z,49.11
2023-04-18T16:46:32.951Z,49.83
2023-04-18T16:49:01.541Z,50.50
2023-04-18T16:51:28.960Z,50.93
2023-04-18T16:53:55.780Z,51.31
2023-04-18T16:56:22.585Z,51.80
2023-04-18T16:58:49.334Z,52.57
2023-04-18T17:01:16.296Z,53.16
2023-04-18T17:03:43.195Z,53.16
2023-04-18T17:06:12.203Z,53.61
2023-04-18T17:08:39.055Z,54.00
2023-04-18T17:11:06.695Z,54.43
2023-04-18T17:13:33.496Z,54.86
2023-04-18T17:16:00.889Z,55.10
2023-04-18T17:18:29.074Z,55.40
2023-04-18T17:20:55.850Z,55.80
2023-04-18T17:23:23.032Z,55.91
2023-04-18T17:25:49.835Z,56.22
2023-04-18T17:28:16.675Z,56.50
2023-04-18T17:30:43.939Z,57.05
2023-04-18T17:33:11.114Z,57.41
2023-04-18T17:35:41.367Z,57.71
2023-04-18T17:38:10.668Z,57.94
2023-04-18T17:40:37.559Z,58.29
2023-04-18T17:43:04.386Z,58.27
2023-04-18T17:45:32.424Z,58.56
2023-04-18T17:48:02.248Z,59.09
2023-04-18T17:50:29.396Z,59.25
2023-04-18T17:52:56.576Z,59.61
2023-04-18T17:55:24.230Z,60.00
2023-04-18T17:57:51.022Z,59.91
2023-04-18T18:00:18.290Z,59.94
2023-04-18T18:02:45.156Z,60.40
2023-04-18T18:05:13.761Z,60.59
2023-04-18T18:07:43.246Z,60.93
2023-04-18T18:10:11.458Z,61.18
2023-04-18T18:12:38.309Z,61.58
2023-04-18T18:15:05.976Z,61.72
2023-04-18T18:17:32.756Z,61.98
2023-04-18T18:19:59.559Z,61.96
2023-04-18T18:22:26.372Z,62.36
2023-04-18T18:24:53.258Z,62.28
2023-04-18T18:27:21.255Z,62.56
2023-04-18T18:29:50.122Z,62.64
2023-04-18T18:32:17.008Z,62.95
2023-04-18T18:34:43.918Z,63.23
2023-04-18T18:37:10.752Z,63.16
2023-04-18T18:39:37.486Z,63.07
2023-04-18T18:42:04.347Z,62.92
2023-04-18T18:44:31.799Z,62.87
2023-04-18T18:46:59.781Z,63.14
2023-04-18T18:49:27.648Z,62.87
2023-04-18T18:51:56.978Z,62.49
2023-04-18T18:54:24.087Z,62.58
2023-04-18T18:56:51.795Z,62.24
2023-04-18T18:59:18.605Z,62.32
2023-04-18T19:01:46.724Z,61.97
2023-04-18T19:04:13.820Z,61.56
2023-04-18T19:06:41.996Z,61.38
2023-04-18T19:09:08.837Z,61.16
2023-04-18T19:11:35.640Z,61.22
2023-04-18T19:14:02.991Z,61.78
2023-04-18T19:16:31.194Z,61.99
2023-04-18T19:18:59.172Z,62.54
2023-04-18T19:21:26.156Z,63.43
2023-04-18T19:23:53.073Z,63.54
2023-04-18T19:26:19.836Z,63.67
2023-04-18T19:28:46.632Z,63.99
2023-04-18T19:31:13.490Z,64.00
2023-04-18T19:33:55.655Z,64.35
2023-04-18T19:36:22.671Z,63.89
2023-04-18T19:38:49.445Z,64.14
2023-04-18T19:41:16.259Z,64.10
2023-04-18T19:43:43.285Z,64.38
2023-04-18T19:46:10.355Z,64.44
2023-04-18T19:48:37.674Z,64.60
2023-04-18T19:51:04.854Z,64.75
2023-04-18T19:53:31.773Z,65.15
2023-04-18T19:55:58.534Z,65.26
2023-04-18T19:58:46.877Z,65.53
2023-04-18T20:01:16.461Z,65.52
2023-04-18T20:03:43.909Z,65.63
2023-04-18T20:06:11.391Z,66.08
2023-04-18T20:08:41.507Z,66.14
2023-04-18T20:11:10.744Z,67.28
2023-04-18T20:13:37.969Z,67.99
2023-04-18T20:16:06.638Z,69.34
2023-04-18T20:18:36.000Z,70.39
2023-04-18T20:21:03.618Z,71.39
2023-04-18T20:23:30.471Z,72.34
2023-04-18T20:25:57.303Z,73.40
2023-04-18T20:28:24.119Z,73.97
2023-04-18T20:30:51.031Z,74.76
2023-04-18T20:33:18.088Z,75.61
2023-04-18T20:35:44.822Z,75.98
2023-04-18T20:38:12.471Z,76.84
2023-04-18T20:40:39.783Z,77.02
2023-04-18T20:43:08.123Z,77.22
2023-04-18T20:45:37.886Z,77.56
2023-04-18T20:48:04.794Z,77.80
2023-04-18T20:50:31.580Z,78.31
2023-04-18T20:53:00.412Z,78.27
2023-04-18T20:55:27.508Z,78.43
2023-04-18T20:57:54.275Z,78.57
2023-04-18T21:00:21.063Z,78.71
2023-04-18T21:02:48.024Z,79.03
2023-04-18T21:05:15.299Z,79.11
2023-04-18T21:07:42.990Z,79.49
2023-04-18T21:10:11.512Z,79.62
2023-04-18T21:12:38.317Z,79.86
2023-04-18T21:15:05.879Z,79.81
2023-04-18T21:17:32.738Z,80.08
2023-04-18T21:19:59.698Z,80.17
2023-04-18T21:22:26.832Z,80.20
2023-04-18T21:24:53.568Z,80.47
2023-04-18T21:27:20.455Z,80.51
2023-04-18T21:29:48.018Z,80.78
2023-04-18T21:32:14.772Z,80.53
2023-04-18T21:34:41.548Z,80.76
2023-04-18T21:37:09.614Z,80.58
2023-04-18T21:39:38.313Z,80.58
2023-04-18T21:42:05.135Z,80.68
2023-04-18T21:44:32.222Z,80.85
2023-04-18T21:46:59.099Z,81.14
2023-04-18T21:49:25.928Z,81.25
2023-04-18T21:51:52.731Z,81.25
2023-04-18T21:54:19.543Z,81.41
2023-04-18T21:56:46.362Z,81.23
2023-04-18T21:59:13.403Z,81.44
2023-04-18T22:01:40.204Z,81.22
2023-04-18T22:04:07.239Z,81.44
2023-04-18T22:06:34.809Z,81.48
2023-04-18T22:09:01.864Z,81.44
2023-04-18T22:11:28.942Z,81.65
2023-04-18T22:13:58.050Z,81.52
2023-04-18T22:16:25.027Z,81.56
2023-04-18T22:18:52.056Z,81.48
2023-04-18T22:21:18.802Z,81.67
2023-04-18T22:23:45.724Z,81.71
2023-04-18T22:26:12.657Z,81.62
2023-04-18T22:28:39.444Z,81.51
2023-04-18T22:31:06.416Z,81.74
2023-04-18T22:33:33.241Z,82.01
2023-04-18T22:36:00.877Z,82.12
2023-04-18T22:38:27.643Z,82.11
2023-04-18T22:40:54.444Z,82.45
2023-04-18T22:43:23.680Z,82.40
2023-04-18T22:46:06.479Z,82.59
2023-04-18T22:48:35.297Z,82.55
2023-04-18T22:51:02.609Z,82.52
2023-04-18T22:53:29.472Z,82.43
2023-04-18T22:55:56.307Z,82.48
2023-04-18T22:58:23.108Z,82.52
2023-04-18T23:00:50.720Z,82.80
2023-04-18T23:03:17.662Z,82.70
2023-04-18T23:05:45.318Z,82.72
2023-04-18T23:08:12.172Z,82.56
2023-04-18T23:10:39.366Z,82.85
2023-04-18T23:13:06.187Z,82.81
2023-04-18T23:15:33.390Z,82.78
2023-04-18T23:18:00.310Z,83.11
2023-04-18T23:20:27.199Z,83.30
2023-04-18T23:22:55.559Z,82.96
2023-04-18T23:25:22.581Z,83.12
2023-04-18T23:27:49.389Z,83.27
2023-04-18T23:30:16.374Z,83.42
2023-04-18T23:32:43.224Z,83.33
2023-04-18T23:35:11.122Z,83.54
2023-04-18T23:37:38.066Z,83.36
2023-04-18T23:40:06.850Z,83.49
2023-04-18T23:42:35.147Z,83.54
2023-04-18T23:45:04.105Z,83.31
2023-04-18T23:47:30.934Z,83.17
2023-04-18T23:49:57.869Z,83.06
2023-04-18T23:52:24.720Z,83.09
2023-04-18T23:54:51.866Z,83.45
2023-04-18T23:57:18.598Z,83.53
2023-04-18T23:59:45.388Z,83.75
